Time;durP1;ratioP1;P1;durP2;ratioP2;P2;SDS_P1;SDS_P2;PMS_P1;PMS_P2;Temp;Humidity;BMP_temperature;BMP_pressure;BME280_temperature;BME280_humidity;BME280_pressure;Samples;Min_cycle;Max_cycle;Signal;HPM_P1;HPM_P2
2022/07/07 00:01:39;;;;;;;15.18;9.27;;;16.50;99.90;;;;;;5061221;28;20052;-68
2022/07/07 00:04:05;;;;;;;20.42;8.70;;;16.50;99.90;;;;;;5057273;28;20048;-68
2022/07/07 00:06:31;;;;;;;13.60;8.38;;;16.50;99.90;;;;;;5058476;28;20544;-68
2022/07/07 00:08:57;;;;;;;15.18;8.30;;;16.50;99.90;;;;;;5069152;28;20036;-67
2022/07/07 00:11:23;;;;;;;14.60;8.52;;;16.50;99.90;;;;;;5061804;28;20044;-67
2022/07/07 00:13:49;;;;;;;14.68;8.18;;;16.50;99.90;;;;;;5068489;28;20511;-69
2022/07/07 00:16:15;;;;;;;16.27;8.27;;;16.50;99.90;;;;;;5068695;28;20044;-68
2022/07/07 00:18:41;;;;;;;12.55;7.72;;;16.50;99.90;;;;;;5050206;28;20127;-67
2022/07/07 00:21:07;;;;;;;16.15;7.40;;;16.50;99.90;;;;;;5054894;28;20092;-67
2022/07/07 00:23:39;;;;;;;13.18;7.20;;;16.50;99.90;;;;;;5065812;28;20040;-67
2022/07/07 00:26:05;;;;;;;12.73;7.40;;;16.50;99.90;;;;;;5059623;28;20532;-67
2022/07/07 00:28:31;;;;;;;16.83;7.20;;;16.50;99.90;;;;;;5057865;28;20040;-67
2022/07/07 00:30:57;;;;;;;15.52;6.85;;;16.50;99.90;;;;;;5062389;28;20044;-68
2022/07/07 00:33:22;;;;;;;12.85;6.85;;;16.60;99.90;;;;;;5069942;28;20035;-68
2022/07/07 00:35:48;;;;;;;11.13;6.45;;;16.50;99.90;;;;;;5059850;28;20402;-67
2022/07/07 00:38:14;;;;;;;12.77;7.20;;;16.50;99.90;;;;;;5069995;28;20037;-66
2022/07/07 00:40:39;;;;;;;12.95;6.68;;;16.50;99.90;;;;;;5066880;28;20033;-68
2022/07/07 00:43:05;;;;;;;14.63;6.68;;;16.50;99.90;;;;;;5066879;28;20044;-67
2022/07/07 00:45:31;;;;;;;14.13;6.25;;;16.50;99.90;;;;;;5057853;28;20044;-67
2022/07/07 00:47:58;;;;;;;10.07;5.05;;;16.40;99.90;;;;;;5071267;28;20040;-67
2022/07/07 00:50:24;;;;;;;11.77;5.00;;;16.40;99.90;;;;;;5068570;28;20529;-68
2022/07/07 00:52:50;;;;;;;11.52;4.45;;;16.30;99.90;;;;;;5059986;28;20090;-68
2022/07/07 00:55:15;;;;;;;9.40;3.70;;;16.10;99.90;;;;;;5053054;28;20483;-68
2022/07/07 00:57:41;;;;;;;7.13;3.90;;;16.10;99.90;;;;;;5055722;28;20056;-66
2022/07/07 01:00:13;;;;;;;6.72;3.15;;;16.00;99.90;;;;;;5057708;28;20107;-67
2022/07/07 01:02:41;;;;;;;10.32;3.58;;;16.00;99.90;;;;;;5064211;28;20399;-68
2022/07/07 01:05:08;;;;;;;8.15;3.60;;;16.00;99.90;;;;;;5056134;28;20061;-67
2022/07/07 01:07:35;;;;;;;6.85;3.45;;;15.90;99.90;;;;;;5056861;28;20072;-67
2022/07/07 01:10:02;;;;;;;8.87;3.67;;;15.90;99.90;;;;;;5059618;28;20041;-68
2022/07/07 01:12:38;;;;;;;11.18;4.05;;;15.90;99.90;;;;;;5053765;28;20036;-68
2022/07/07 01:15:06;;;;;;;12.95;4.38;;;15.90;99.90;;;;;;5062941;28;20051;-67
2022/07/07 01:17:32;;;;;;;12.27;3.80;;;15.90;99.90;;;;;;5057196;28;20036;-68
2022/07/07 01:19:58;;;;;;;12.05;3.95;;;15.90;99.90;;;;;;5064958;28;20379;-68
2022/07/07 01:22:31;;;;;;;7.97;4.30;;;15.80;99.90;;;;;;5069604;28;20402;-66
2022/07/07 01:24:57;;;;;;;9.45;3.88;;;15.80;99.90;;;;;;5055054;28;20044;-68
2022/07/07 01:27:24;;;;;;;13.80;4.47;;;15.90;99.90;;;;;;5059485;28;20045;-68
2022/07/07 01:29:57;;;;;;;8.63;4.53;;;15.90;99.90;;;;;;5065098;28;20040;-69
2022/07/07 01:32:24;;;;;;;11.93;4.30;;;15.90;99.90;;;;;;5058073;28;20053;-68
2022/07/07 01:34:51;;;;;;;8.77;4.15;;;15.90;99.90;;;;;;5064585;28;20049;-67
2022/07/07 01:37:20;;;;;;;8.68;4.03;;;15.90;99.90;;;;;;5064594;28;20091;-68
2022/07/07 01:39:46;;;;;;;11.15;4.07;;;16.00;99.90;;;;;;5069162;28;20049;-67
2022/07/07 01:42:13;;;;;;;11.07;4.32;;;15.90;99.90;;;;;;5054147;28;20120;-67
2022/07/07 01:44:41;;;;;;;10.30;5.05;;;15.90;99.90;;;;;;5060330;28;20062;-68
2022/07/07 01:47:07;;;;;;;;;;;16.00;99.90;;;;;;5067568;28;20032;-68
2022/07/07 01:49:33;;;;;;;14.27;3.92;;;15.90;99.90;;;;;;5063953;28;19956;-68
2022/07/07 01:52:00;;;;;;;11.43;5.30;;;16.00;99.90;;;;;;5061429;28;20048;-68
2022/07/07 01:54:27;;;;;;;11.85;5.18;;;16.00;99.90;;;;;;5066713;28;20116;-67
2022/07/07 01:56:53;;;;;;;18.35;4.60;;;15.90;99.90;;;;;;5070201;28;20036;-69
2022/07/07 01:59:19;;;;;;;14.20;4.70;;;16.00;99.90;;;;;;5067902;28;20048;-68
2022/07/07 02:01:44;;;;;;;13.68;4.65;;;16.00;99.90;;;;;;5066206;28;20037;-68
2022/07/07 02:04:10;;;;;;;14.40;4.32;;;16.00;99.90;;;;;;5057918;28;20067;-67
2022/07/07 02:06:38;;;;;;;10.98;4.43;;;16.00;99.90;;;;;;5070249;28;20553;-67
2022/07/07 02:09:07;;;;;;;21.98;5.22;;;16.00;99.90;;;;;;5067296;28;20047;-68
2022/07/07 02:11:33;;;;;;;22.75;5.18;;;16.10;99.90;;;;;;5067623;28;20476;-67
2022/07/07 02:13:58;;;;;;;16.67;4.68;;;16.00;99.90;;;;;;5055668;28;20457;-69
2022/07/07 02:16:25;;;;;;;12.73;4.35;;;16.00;99.90;;;;;;5060137;28;20173;-67
2022/07/07 02:18:58;;;;;;;9.40;3.63;;;16.10;99.90;;;;;;5068007;28;20119;-68
2022/07/07 02:21:24;;;;;;;13.02;3.65;;;16.10;99.90;;;;;;5072112;28;20399;-67
2022/07/07 02:23:52;;;;;;;10.55;3.75;;;16.00;99.90;;;;;;5065260;28;20041;-68
2022/07/07 02:26:18;;;;;;;12.88;3.55;;;16.00;99.90;;;;;;5071353;28;20036;-68
2022/07/07 02:28:44;;;;;;;12.35;3.97;;;16.00;99.90;;;;;;5062296;28;20041;-68
2022/07/07 02:31:10;;;;;;;14.52;4.63;;;16.00;99.90;;;;;;5064703;28;20044;-68
2022/07/07 02:33:36;;;;;;;17.45;5.40;;;16.00;99.90;;;;;;5063103;28;20094;-68
2022/07/07 02:36:03;;;;;;;20.50;4.80;;;16.00;99.90;;;;;;5054190;28;20037;-67
2022/07/07 02:38:29;;;;;;;16.80;4.65;;;16.00;99.90;;;;;;5064548;28;20036;-68
2022/07/07 02:40:55;;;;;;;13.25;3.95;;;16.00;99.90;;;;;;5069891;28;20048;-67
2022/07/07 02:43:21;;;;;;;16.73;4.47;;;16.00;99.90;;;;;;5065834;28;20096;-68
2022/07/07 02:45:49;;;;;;;12.88;3.42;;;16.00;99.90;;;;;;5066797;28;20105;-68
2022/07/07 02:48:18;;;;;;;11.65;4.05;;;16.00;99.90;;;;;;5070120;28;20048;-67
2022/07/07 02:50:43;;;;;;;14.52;3.38;;;16.00;99.90;;;;;;5067760;28;20098;-68
2022/07/07 02:53:11;;;;;;;16.10;3.33;;;16.00;99.90;;;;;;5056544;28;20120;-67
2022/07/07 02:55:37;;;;;;;13.60;3.67;;;15.90;99.90;;;;;;5060431;28;20389;-68
2022/07/07 02:58:05;;;;;;;13.07;3.17;;;16.00;99.90;;;;;;5064004;28;20299;-68
2022/07/07 03:00:35;;;;;;;13.63;2.88;;;16.00;99.90;;;;;;5070921;28;20074;-67
2022/07/07 03:03:05;;;;;;;17.10;3.67;;;15.90;99.90;;;;;;5054943;28;20056;-67
2022/07/07 03:05:31;;;;;;;14.07;3.60;;;16.00;99.90;;;;;;5065751;28;20045;-67
2022/07/07 03:07:57;;;;;;;17.95;3.33;;;16.00;99.90;;;;;;5068130;28;20041;-68
2022/07/07 03:10:23;;;;;;;16.88;3.50;;;15.90;99.90;;;;;;5060776;28;20051;-67
2022/07/07 03:12:49;;;;;;;16.35;3.97;;;15.90;99.90;;;;;;5063095;28;20036;-69
2022/07/07 03:15:15;;;;;;;20.52;4.25;;;15.90;99.90;;;;;;5057953;28;20044;-69
2022/07/07 03:17:43;;;;;;;11.63;3.55;;;15.90;99.90;;;;;;5073651;28;20037;-67
2022/07/07 03:20:10;;;;;;;18.05;4.43;;;15.90;99.90;;;;;;5073812;28;20114;-68
2022/07/07 03:22:37;;;;;;;12.63;3.70;;;15.90;99.90;;;;;;5067988;28;20036;-68
2022/07/07 03:25:04;;;;;;;18.17;3.90;;;15.90;99.90;;;;;;5067637;28;20079;-68
2022/07/07 03:27:30;;;;;;;11.25;3.13;;;15.90;99.90;;;;;;5065182;28;20557;-68
2022/07/07 03:29:56;;;;;;;17.80;3.00;;;15.90;99.90;;;;;;5067033;28;20152;-68
2022/07/07 03:32:21;;;;;;;11.25;2.58;;;16.00;99.90;;;;;;5061814;28;20028;-68
2022/07/07 03:34:47;;;;;;;14.90;2.55;;;15.90;99.90;;;;;;5058436;28;20040;-70
2022/07/07 03:37:13;;;;;;;14.65;2.50;;;16.00;99.90;;;;;;5066037;28;20079;-68
2022/07/07 03:39:38;;;;;;;13.98;2.85;;;15.80;99.90;;;;;;5059557;28;20076;-69
2022/07/07 03:42:08;;;;;;;18.23;2.60;;;15.80;99.90;;;;;;5065279;28;20086;-69
2022/07/07 03:44:34;;;;;;;12.95;2.55;;;15.70;99.90;;;;;;5067054;28;20434;-68
2022/07/07 03:47:00;;;;;;;15.23;2.47;;;15.70;99.90;;;;;;5059892;28;20048;-68
2022/07/07 03:49:26;;;;;;;18.15;2.65;;;15.60;99.90;;;;;;5068589;28;20453;-69
2022/07/07 03:51:51;;;;;;;13.25;2.20;;;15.60;99.90;;;;;;5070215;28;20045;-69
2022/07/07 03:54:17;;;;;;;15.60;2.05;;;15.60;99.90;;;;;;5069462;28;20101;-68
2022/07/07 03:56:43;;;;;;;11.82;2.15;;;15.60;99.90;;;;;;5063754;28;20040;-68
2022/07/07 03:59:08;;;;;;;13.77;2.33;;;15.50;99.90;;;;;;5058788;28;20052;-68
2022/07/07 04:01:36;;;;;;;8.52;1.58;;;15.50;99.90;;;;;;5063894;28;20059;-68
2022/07/07 04:04:02;;;;;;;6.97;1.45;;;15.50;99.90;;;;;;5063032;28;20071;-69
2022/07/07 04:06:31;;;;;;;12.52;2.17;;;15.50;99.90;;;;;;5065860;28;20052;-68
2022/07/07 04:08:57;;;;;;;15.43;2.03;;;15.40;99.90;;;;;;5068604;28;20072;-67
2022/07/07 04:11:23;;;;;;;11.07;2.15;;;15.60;99.90;;;;;;5064623;28;20192;-68
2022/07/07 04:13:48;;;;;;;14.18;1.65;;;15.40;99.90;;;;;;5061346;28;20536;-68
2022/07/07 04:16:14;;;;;;;8.98;1.92;;;15.40;99.90;;;;;;5062519;28;20045;-68
2022/07/07 04:18:40;;;;;;;8.90;1.77;;;15.40;99.90;;;;;;5063866;28;20162;-68
2022/07/07 04:21:06;;;;;;;13.35;2.08;;;15.20;99.90;;;;;;5068279;28;20048;-68
2022/07/07 04:23:31;;;;;;;8.77;1.85;;;15.20;99.90;;;;;;5066806;28;20044;-68
2022/07/07 04:25:57;;;;;;;12.60;2.55;;;15.10;99.90;;;;;;5056725;28;20081;-67
2022/07/07 04:28:23;;;;;;;7.55;1.95;;;15.20;99.90;;;;;;5068952;28;20072;-68
2022/07/07 04:30:48;;;;;;;14.88;2.40;;;15.10;99.90;;;;;;5054015;28;20072;-68
2022/07/07 04:33:14;;;;;;;10.90;2.22;;;15.10;99.90;;;;;;5058801;28;20040;-67
2022/07/07 04:35:40;;;;;;;9.02;2.13;;;15.10;99.90;;;;;;5058015;28;20090;-68
2022/07/07 04:38:05;;;;;;;9.40;2.38;;;15.10;99.90;;;;;;5067800;28;20127;-68
2022/07/07 04:40:31;;;;;;;9.32;2.13;;;15.10;99.90;;;;;;5055804;28;20099;-69
2022/07/07 04:42:57;;;;;;;8.98;2.45;;;15.00;99.90;;;;;;5064125;28;20044;-68
2022/07/07 04:45:22;;;;;;;10.25;2.05;;;14.90;99.90;;;;;;5057750;28;20044;-67
2022/07/07 04:47:48;;;;;;;7.93;1.75;;;15.00;99.90;;;;;;5060716;28;20129;-68
2022/07/07 04:50:14;;;;;;;12.18;2.00;;;15.00;99.90;;;;;;5060352;28;20480;-68
2022/07/07 04:52:40;;;;;;;14.35;2.50;;;15.00;99.90;;;;;;5063800;28;20454;-68
2022/07/07 04:55:08;;;;;;;10.50;2.38;;;15.20;99.90;;;;;;5065508;28;20465;-68
2022/07/07 04:57:34;;;;;;;19.42;2.63;;;15.10;99.90;;;;;;5058639;28;20045;-68
2022/07/07 05:00:00;;;;;;;9.32;2.20;;;15.10;99.90;;;;;;5062174;28;20584;-68
2022/07/07 05:02:28;;;;;;;11.18;2.10;;;15.10;99.90;;;;;;5067646;28;20055;-68
2022/07/07 05:04:54;;;;;;;15.55;2.83;;;15.20;99.90;;;;;;5064748;28;20075;-68
2022/07/07 05:07:20;;;;;;;11.65;2.63;;;16.00;99.90;;;;;;5062664;28;20065;-69
2022/07/07 05:09:46;;;;;;;15.45;2.65;;;15.20;99.90;;;;;;5061207;28;20475;-68
2022/07/07 05:12:11;;;;;;;13.50;2.72;;;15.20;99.90;;;;;;5068654;28;20665;-68
2022/07/07 05:14:37;;;;;;;11.90;2.58;;;15.30;99.90;;;;;;5063645;28;20041;-68
2022/07/07 05:17:03;;;;;;;14.30;2.83;;;15.20;99.90;;;;;;5060821;28;20087;-68
2022/07/07 05:19:29;;;;;;;13.10;2.55;;;15.20;99.90;;;;;;5068157;28;20072;-69
2022/07/07 05:21:55;;;;;;;15.95;2.85;;;15.20;99.90;;;;;;5071201;28;20103;-68
2022/07/07 05:24:21;;;;;;;18.10;2.85;;;15.30;99.90;;;;;;5068444;28;20155;-68
2022/07/07 05:26:47;;;;;;;17.77;3.08;;;15.30;99.90;;;;;;5057692;28;20045;-68
2022/07/07 05:29:14;;;;;;;16.30;3.42;;;15.30;99.90;;;;;;5063058;28;20052;-68
2022/07/07 05:31:40;;;;;;;9.98;2.80;;;15.30;99.90;;;;;;5059817;28;20560;-68
2022/07/07 05:34:05;;;;;;;16.48;2.58;;;15.30;99.90;;;;;;5055236;28;20041;-67
2022/07/07 05:36:32;;;;;;;12.07;2.47;;;15.30;99.90;;;;;;5068384;28;20110;-68
2022/07/07 05:38:58;;;;;;;12.02;3.05;;;15.30;99.90;;;;;;5073651;28;20534;-68
2022/07/07 05:41:24;;;;;;;12.55;2.75;;;15.30;99.90;;;;;;5069147;28;20151;-69
2022/07/07 05:43:50;;;;;;;17.25;3.47;;;15.40;99.90;;;;;;5059791;28;20042;-67
2022/07/07 05:46:15;;;;;;;15.20;2.92;;;15.30;99.90;;;;;;5071092;28;20075;-68
2022/07/07 05:48:41;;;;;;;15.20;2.85;;;15.30;99.90;;;;;;5064772;28;20123;-68
2022/07/07 05:51:07;;;;;;;16.40;3.22;;;15.40;99.90;;;;;;5053041;28;20048;-68
2022/07/07 05:53:33;;;;;;;11.82;2.78;;;15.40;99.90;;;;;;5053877;28;20425;-68
2022/07/07 05:56:02;;;;;;;14.35;3.35;;;15.50;99.90;;;;;;5065593;28;20437;-67
2022/07/07 05:58:28;;;;;;;17.63;3.85;;;15.60;99.90;;;;;;5057410;28;20072;-68
2022/07/07 06:00:54;;;;;;;22.45;3.35;;;15.50;99.90;;;;;;5057899;28;20072;-68
2022/07/07 06:03:20;;;;;;;13.32;2.70;;;15.50;99.90;;;;;;5072293;28;20052;-68
2022/07/07 06:05:46;;;;;;;11.35;2.53;;;15.50;99.90;;;;;;5073628;28;20059;-68
2022/07/07 06:08:11;;;;;;;14.27;2.65;;;15.50;99.90;;;;;;5066025;28;20086;-68
2022/07/07 06:10:37;;;;;;;15.85;2.58;;;15.40;99.90;;;;;;5064079;28;20475;-68
2022/07/07 06:13:03;;;;;;;10.40;2.67;;;15.50;99.90;;;;;;5045331;28;20044;-67
2022/07/07 06:15:35;;;;;;;12.38;2.38;;;15.50;99.90;;;;;;5062608;28;20095;-68
2022/07/07 06:18:04;;;;;;;12.50;2.53;;;15.70;99.90;;;;;;5061573;28;20498;-68
2022/07/07 06:20:30;;;;;;;9.48;2.35;;;16.00;99.90;;;;;;5073767;28;20044;-68
2022/07/07 06:22:56;;;;;;;13.75;2.15;;;16.20;99.90;;;;;;5070825;28;20037;-67
2022/07/07 06:25:22;;;;;;;16.90;2.45;;;16.30;99.90;;;;;;5074171;28;20105;-67
2022/07/07 06:27:51;;;;;;;6.85;1.92;;;16.40;99.90;;;;;;5073026;28;20036;-68
2022/07/07 06:30:17;;;;;;;8.80;2.00;;;16.40;99.90;;;;;;5067054;28;20032;-68
2022/07/07 06:32:43;;;;;;;11.88;1.90;;;16.40;99.90;;;;;;5074130;28;20048;-67
2022/07/07 06:35:12;;;;;;;8.23;1.85;;;16.30;99.90;;;;;;5074080;28;20040;-68
2022/07/07 06:37:38;;;;;;;6.80;1.90;;;16.30;99.90;;;;;;5067458;28;20401;-67
2022/07/07 06:40:04;;;;;;;14.98;2.58;;;16.20;99.90;;;;;;5059775;28;20040;-66
2022/07/07 06:42:29;;;;;;;12.43;2.13;;;16.10;99.90;;;;;;5056842;28;20120;-69
2022/07/07 06:44:55;;;;;;;11.82;2.05;;;16.10;99.90;;;;;;5081572;28;20457;-67
2022/07/07 06:47:21;;;;;;;14.70;2.35;;;16.10;99.90;;;;;;5064044;28;20037;-68
2022/07/07 06:49:46;;;;;;;8.68;1.98;;;16.10;99.90;;;;;;5053426;28;20041;-68
2022/07/07 06:52:12;;;;;;;9.85;1.98;;;16.20;99.90;;;;;;5073500;28;20052;-70
2022/07/07 06:54:38;;;;;;;6.57;1.48;;;16.20;99.90;;;;;;5064135;28;20040;-69
2022/07/07 06:57:10;;;;;;;7.80;1.30;;;16.20;99.90;;;;;;5052677;28;20103;-68
2022/07/07 06:59:36;;;;;;;6.07;1.60;;;16.20;99.90;;;;;;5071577;28;20041;-68
2022/07/07 07:02:02;;;;;;;5.25;1.73;;;16.30;99.90;;;;;;5063355;28;20033;-70
2022/07/07 07:04:28;;;;;;;6.18;1.85;;;16.30;99.90;;;;;;5071983;28;20394;-67
2022/07/07 07:06:53;;;;;;;7.80;1.67;;;16.30;99.90;;;;;;5056460;28;20037;-67
2022/07/07 07:09:22;;;;;;;14.98;1.92;;;16.40;99.90;;;;;;5062509;28;20037;-68
2022/07/07 07:11:57;;;;;;;12.63;3.03;;;16.30;99.90;;;;;;5061383;28;20032;-69
2022/07/07 07:14:43;;;;;;;7.38;1.52;;;16.20;99.90;;;;;;5061379;28;20156;-72
2022/07/07 07:17:09;;;;;;;5.53;1.48;;;16.20;99.90;;;;;;5059706;28;20028;-68
2022/07/07 07:19:35;;;;;;;8.05;1.50;;;16.10;99.90;;;;;;5067996;28;20051;-69
2022/07/07 07:22:07;;;;;;;5.28;1.20;;;16.10;99.90;;;;;;5073441;28;20398;-70
2022/07/07 07:24:33;;;;;;;8.30;1.83;;;16.20;99.90;;;;;;5071681;28;20056;-69
2022/07/07 07:26:58;;;;;;;6.28;1.35;;;16.30;99.90;;;;;;5066834;28;20044;-67
2022/07/07 07:29:24;;;;;;;3.95;1.10;;;16.40;99.90;;;;;;5067371;28;20052;-67
2022/07/07 07:31:50;;;;;;;10.73;1.42;;;16.60;99.90;;;;;;5069273;28;20041;-67
2022/07/07 07:34:34;;;;;;;7.20;0.98;;;16.80;99.90;;;;;;5068752;28;20478;-69
2022/07/07 07:37:00;;;;;;;6.43;1.60;;;16.70;99.90;;;;;;5073299;28;20048;-73
2022/07/07 07:39:28;;;;;;;7.15;1.95;;;16.80;99.90;;;;;;5065233;28;20040;-70
2022/07/07 07:41:54;;;;;;;4.45;1.02;;;16.70;99.90;;;;;;5059607;28;20478;-68
2022/07/07 07:47:13;;;;;;;7.30;1.63;;;16.40;99.90;;;;;;5072628;28;20051;-68
2022/07/07 07:49:42;;;;;;;5.07;1.52;;;16.20;99.90;;;;;;5073206;28;20041;-70
2022/07/07 07:52:08;;;;;;;9.60;2.47;;;16.20;99.90;;;;;;5056015;28;20049;-68
2022/07/07 07:54:34;;;;;;;7.57;1.45;;;16.30;99.90;;;;;;5052992;28;20040;-67
2022/07/07 07:56:59;;;;;;;7.32;1.42;;;16.50;99.90;;;;;;5053917;28;20049;-68
2022/07/07 07:59:25;;;;;;;8.07;1.50;;;16.70;99.90;;;;;;5072441;28;20066;-68
2022/07/07 08:01:51;;;;;;;6.78;1.38;;;17.00;99.90;;;;;;5062739;28;20041;-69
2022/07/07 08:04:17;;;;;;;8.45;1.92;;;17.10;99.90;;;;;;5051497;28;20488;-68
2022/07/07 08:06:42;;;;;;;11.32;1.70;;;17.00;99.90;;;;;;5070907;28;20036;-67
2022/07/07 08:09:08;;;;;;;4.97;1.90;;;17.10;99.90;;;;;;5072184;28;20076;-68
2022/07/07 08:11:34;;;;;;;8.43;1.75;;;17.00;99.90;;;;;;5058711;28;20602;-66
2022/07/07 08:13:59;;;;;;;9.43;1.77;;;17.10;99.90;;;;;;5059000;28;20036;-67
2022/07/07 08:16:25;;;;;;;5.00;1.42;;;17.20;99.90;;;;;;5071475;28;20089;-67
2022/07/07 08:18:51;;;;;;;10.00;1.83;;;17.50;99.90;;;;;;5071821;28;20083;-69
2022/07/07 08:21:18;;;;;;;9.48;2.15;;;17.60;99.90;;;;;;5071610;28;20049;-68
2022/07/07 08:23:47;;;;;;;10.35;2.13;;;17.60;99.90;;;;;;5052157;28;20072;-68
2022/07/07 08:26:12;;;;;;;7.28;1.85;;;17.60;99.90;;;;;;5058357;28;20085;-67
2022/07/07 08:28:40;;;;;;;8.63;1.92;;;17.60;99.90;;;;;;5069603;28;20041;-66
2022/07/07 08:31:06;;;;;;;12.73;1.92;;;17.60;99.90;;;;;;5069841;28;20052;-67
2022/07/07 08:33:33;;;;;;;12.05;2.13;;;17.60;99.90;;;;;;5051307;28;20643;-67
2022/07/07 08:35:59;;;;;;;10.43;2.03;;;17.50;99.90;;;;;;5071844;28;20116;-68
2022/07/07 08:38:25;;;;;;;12.07;2.33;;;17.40;99.90;;;;;;5070960;28;20194;-68
2022/07/07 08:40:51;;;;;;;8.10;2.42;;;17.30;99.90;;;;;;5070453;28;20049;-68
2022/07/07 08:43:18;;;;;;;12.20;3.33;;;17.10;99.90;;;;;;5067177;28;20406;-69
2022/07/07 08:45:45;;;;;;;11.20;2.63;;;17.10;99.90;;;;;;5073882;28;20040;-69
2022/07/07 08:48:11;;;;;;;11.93;2.83;;;17.20;99.90;;;;;;5076053;28;20055;-68
2022/07/07 08:50:38;;;;;;;13.70;2.75;;;17.30;99.90;;;;;;5068848;28;20120;-68
2022/07/07 08:53:11;;;;;;;7.60;3.03;;;17.40;99.90;;;;;;5066849;28;20485;-68
2022/07/07 08:55:43;;;;;;;7.40;2.45;;;17.60;99.90;;;;;;5075977;28;20040;-67
2022/07/07 08:58:19;;;;;;;13.95;2.65;;;17.60;99.90;;;;;;5070698;28;20040;-67
2022/07/07 09:00:44;;;;;;;13.35;2.33;;;17.50;99.90;;;;;;5065606;28;20068;-68
2022/07/07 09:03:10;;;;;;;7.55;1.60;;;17.50;99.90;;;;;;5058374;28;20061;-66
2022/07/07 09:05:39;;;;;;;5.35;1.75;;;17.40;99.90;;;;;;5055384;28;20070;-67
2022/07/07 09:08:19;;;;;;;5.80;1.80;;;17.30;99.90;;;;;;5043619;28;20080;-67
2022/07/07 09:10:45;;;;;;;4.53;1.58;;;17.20;99.90;;;;;;5060286;28;20471;-66
2022/07/07 09:13:28;;;;;;;8.70;1.88;;;17.10;99.90;;;;;;5063108;28;20037;-67
2022/07/07 09:15:56;;;;;;;4.75;1.80;;;17.10;99.90;;;;;;5064979;28;20275;-68
2022/07/07 09:18:35;;;;;;;5.03;1.33;;;17.40;99.90;;;;;;5071046;28;20047;-66
2022/07/07 09:21:07;;;;;;;;;;;17.60;99.90;;;;;;5071104;28;20485;-65
2022/07/07 09:23:50;;;;;;;6.85;2.08;;;17.60;99.90;;;;;;5073642;28;20054;-68
2022/07/07 09:26:43;;;;;;;11.77;1.95;;;17.50;99.90;;;;;;5073757;28;20048;-67
2022/07/07 09:29:13;;;;;;;5.40;1.73;;;17.30;99.90;;;;;;5055140;28;20052;-68
2022/07/07 09:31:58;;;;;;;13.77;2.08;;;17.60;99.90;;;;;;5059612;28;20049;-67
2022/07/07 09:34:36;;;;;;;10.90;2.00;;;17.60;99.90;;;;;;5041927;28;20052;-68
2022/07/07 09:39:55;;;;;;;7.75;2.58;;;17.60;99.90;;;;;;5062356;28;20048;-67
2022/07/07 09:42:32;;;;;;;10.70;2.13;;;17.40;99.90;;;;;;5057865;28;20179;-70
2022/07/07 09:45:05;;;;;;;6.60;1.67;;;17.20;99.90;;;;;;5060122;28;20451;-68
2022/07/07 09:47:33;;;;;;;11.65;1.83;;;17.00;99.90;;;;;;5059077;28;20436;-68
2022/07/07 09:50:01;;;;;;;7.63;2.35;;;17.00;99.90;;;;;;5054907;28;20037;-68
2022/07/07 09:52:29;;;;;;;8.38;1.98;;;16.90;99.90;;;;;;5053487;28;20103;-69
2022/07/07 09:54:56;;;;;;;7.50;1.40;;;17.00;99.90;;;;;;5053146;28;20487;-69
2022/07/07 09:57:22;;;;;;;4.35;1.00;;;17.10;99.90;;;;;;5060469;28;20372;-67
2022/07/07 09:59:52;;;;;;;6.00;1.35;;;17.20;99.90;;;;;;5060921;28;20048;-68
2022/07/07 10:02:37;;;;;;;7.30;1.50;;;17.20;99.90;;;;;;5060084;28;20064;-68
2022/07/07 10:05:05;;;;;;;10.93;1.90;;;17.30;99.90;;;;;;5062633;28;20096;-67
2022/07/07 10:07:34;;;;;;;7.95;1.40;;;17.30;99.90;;;;;;5054197;28;20048;-67
2022/07/07 10:10:05;;;;;;;6.60;1.92;;;17.30;99.90;;;;;;5055445;28;20499;-68
2022/07/07 10:12:33;;;;;;;9.98;2.13;;;17.30;99.90;;;;;;5067786;28;20047;-68
2022/07/07 10:15:01;;;;;;;10.60;1.87;;;17.30;99.90;;;;;;5069756;28;20119;-67
2022/07/07 10:17:28;;;;;;;5.30;1.80;;;17.30;99.90;;;;;;5060530;28;20045;-68
2022/07/07 10:19:54;;;;;;;9.43;2.70;;;17.40;99.90;;;;;;5063883;28;20098;-68
2022/07/07 10:22:26;;;;;;;14.02;2.95;;;17.50;99.90;;;;;;5059573;28;20052;-67
2022/07/07 10:24:53;;;;;;;13.57;2.67;;;17.40;99.90;;;;;;5068793;28;20052;-67
2022/07/07 10:27:22;;;;;;;18.43;3.27;;;17.20;99.90;;;;;;5066519;28;20048;-68
2022/07/07 10:29:50;;;;;;;15.95;2.95;;;17.00;99.90;;;;;;5064646;28;20645;-68
2022/07/07 10:32:51;;;;;;;22.50;3.83;;;16.90;99.90;;;;;;5054185;28;20110;-67
2022/07/07 10:35:17;;;;;;;;;;;16.90;99.90;;;;;;5051088;28;20049;-68
2022/07/07 10:37:51;;;;;;;16.05;2.28;;;16.90;99.90;;;;;;5048357;28;19955;-68
2022/07/07 10:40:19;;;;;;;17.02;3.05;;;16.90;99.90;;;;;;5049386;28;20075;-68
2022/07/07 10:42:50;;;;;;;23.70;5.13;;;16.90;99.90;;;;;;5065318;28;20040;-67
2022/07/07 10:45:17;;;;;;;16.90;3.17;;;16.90;99.90;;;;;;5055185;28;20049;-67
2022/07/07 10:47:43;;;;;;;13.43;2.63;;;16.80;99.90;;;;;;5066796;28;20049;-69
2022/07/07 10:50:32;;;;;;;28.85;3.45;;;16.70;99.90;;;;;;5061629;28;20040;-67
2022/07/07 10:52:59;;;;;;;;;;;16.70;99.90;;;;;;5066777;28;20489;-67
2022/07/07 10:55:54;;;;;;;12.68;2.50;;;16.70;99.90;;;;;;5061341;28;19932;-68
2022/07/07 10:58:53;;;;;;;17.15;2.83;;;16.80;99.90;;;;;;5064540;28;20127;-67
2022/07/07 11:01:19;;;;;;;11.63;2.67;;;17.30;99.90;;;;;;5064120;28;20060;-67
2022/07/07 11:03:50;;;;;;;17.13;3.33;;;17.00;99.90;;;;;;5052736;28;20104;-68
2022/07/07 11:06:16;;;;;;;9.02;2.15;;;17.20;99.90;;;;;;5045910;28;20044;-68
2022/07/07 11:08:41;;;;;;;13.48;2.42;;;17.10;99.90;;;;;;5059169;28;20049;-67
2022/07/07 11:11:08;;;;;;;22.40;3.10;;;17.10;99.90;;;;;;5068669;28;20048;-68
2022/07/07 11:13:39;;;;;;;16.75;3.30;;;17.00;99.90;;;;;;5061714;28;20048;-66
2022/07/07 11:16:22;;;;;;;19.52;2.40;;;17.00;99.90;;;;;;5052833;28;20044;-66
2022/07/07 11:19:03;;;;;;;19.75;2.97;;;17.00;99.90;;;;;;5060949;28;20044;-67
2022/07/07 11:21:42;;;;;;;19.20;3.53;;;17.00;99.90;;;;;;5048198;28;20052;-67
2022/07/07 11:24:21;;;;;;;22.05;3.78;;;17.00;99.90;;;;;;5050961;28;20049;-67
2022/07/07 11:27:03;;;;;;;14.80;2.60;;;17.00;99.90;;;;;;5064805;28;20045;-67
2022/07/07 11:29:31;;;;;;;15.80;2.33;;;16.90;99.90;;;;;;5059863;28;20049;-67
2022/07/07 11:32:09;;;;;;;10.25;2.20;;;17.20;99.90;;;;;;5056478;28;20074;-67
2022/07/07 11:34:48;;;;;;;10.90;1.95;;;17.20;99.90;;;;;;5057970;28;20123;-68
2022/07/07 11:37:32;;;;;;;;;;;17.40;99.90;;;;;;5069997;28;20045;-67
2022/07/07 11:39:58;;;;;;;12.18;2.33;;;17.50;99.90;;;;;;5056636;28;20329;-67
2022/07/07 11:42:25;;;;;;;10.00;2.25;;;17.60;99.90;;;;;;5065512;28;20122;-67
2022/07/07 11:44:51;;;;;;;9.20;1.90;;;17.70;99.90;;;;;;5065004;28;20051;-67
2022/07/07 11:47:17;;;;;;;12.18;3.30;;;17.60;99.90;;;;;;5061726;28;20037;-69
2022/07/07 11:49:42;;;;;;;12.95;2.22;;;17.70;99.90;;;;;;5068299;28;20047;-67
2022/07/07 11:52:16;;;;;;;10.60;1.90;;;17.80;99.90;;;;;;5062132;28;20111;-68
2022/07/07 11:54:47;;;;;;;8.75;2.10;;;17.90;99.90;;;;;;5052644;28;20052;-69
2022/07/07 11:57:31;;;;;;;8.95;2.22;;;18.00;99.90;;;;;;5046959;28;20138;-68
2022/07/07 12:00:16;;;;;;;11.57;2.47;;;18.00;99.90;;;;;;5061207;28;20052;-67
2022/07/07 12:02:43;;;;;;;18.30;3.00;;;18.10;99.90;;;;;;5051965;28;20048;-67
2022/07/07 12:05:09;;;;;;;15.35;2.67;;;18.20;99.90;;;;;;5049481;28;20083;-69
2022/07/07 12:07:35;;;;;;;14.75;3.65;;;18.20;99.90;;;;;;5057245;28;20403;-66
2022/07/07 12:10:01;;;;;;;12.15;3.08;;;18.00;99.90;;;;;;5067387;28;20051;-67
2022/07/07 12:12:26;;;;;;;16.65;3.10;;;17.80;99.90;;;;;;5065946;28;20491;-68
2022/07/07 12:14:52;;;;;;;13.65;2.88;;;17.80;99.90;;;;;;5059790;28;20056;-66
2022/07/07 12:17:39;;;;;;;18.58;2.95;;;17.80;99.90;;;;;;5060950;28;20448;-67
2022/07/07 12:20:06;;;;;;;23.10;2.58;;;17.80;99.90;;;;;;5066010;28;20498;-68
2022/07/07 12:22:36;;;;;;;9.63;2.57;;;17.80;99.90;;;;;;5057247;28;20720;-67
2022/07/07 12:25:08;;;;;;;11.20;2.88;;;17.70;99.90;;;;;;5050443;28;20049;-67
2022/07/07 12:27:34;;;;;;;17.35;3.80;;;17.70;99.90;;;;;;5064056;28;20437;-67
2022/07/07 12:30:04;;;;;;;10.68;2.92;;;17.70;99.90;;;;;;5068450;28;20051;-66
2022/07/07 12:32:30;;;;;;;13.85;2.67;;;17.90;99.90;;;;;;5066836;28;20086;-67
2022/07/07 12:34:56;;;;;;;12.10;2.53;;;18.00;99.90;;;;;;5066972;28;20099;-67
2022/07/07 12:37:44;;;;;;;11.25;2.25;;;18.10;99.90;;;;;;5052960;28;20055;-67
2022/07/07 12:40:13;;;;;;;12.25;2.90;;;18.10;99.90;;;;;;5054524;28;20368;-68
2022/07/07 12:42:46;;;;;;;19.38;3.45;;;18.10;99.90;;;;;;5059765;28;20336;-68
2022/07/07 12:45:13;;;;;;;16.35;3.75;;;17.90;99.90;;;;;;5049942;28;20054;-67
2022/07/07 12:47:55;;;;;;;11.90;2.53;;;17.80;99.90;;;;;;5065542;28;20123;-68
2022/07/07 12:50:22;;;;;;;17.02;2.67;;;17.60;99.90;;;;;;5063062;28;20560;-67
2022/07/07 12:52:58;;;;;;;21.90;3.60;;;17.50;99.90;;;;;;5065000;28;20040;-67